Time;durP1;ratioP1;P1;durP2;ratioP2;P2;SDS_P1;SDS_P2;PMS_P1;PMS_P2;Temp;Humidity;BMP_temperature;BMP_pressure;BME280_temperature;BME280_humidity;BME280_pressure;Samples;Min_cycle;Max_cycle;Signal;HPM_P1;HPM_P2
2023/12/04 00:01:27;;;;;;;60.40;33.20;;;;;;;;;;5063726;28;20404;-83
2023/12/04 00:03:53;;;;;;;68.10;33.50;;;;;;;;;;5053985;28;20508;-84
2023/12/04 00:06:19;;;;;;;64.43;32.60;;;;;;;;;;5070947;28;20410;-83
2023/12/04 00:08:45;;;;;;;65.57;32.28;;;;;;;;;;5088625;28;20400;-84
2023/12/04 00:11:11;;;;;;;67.00;33.70;;;;;;;;;;5078251;28;20942;-83
2023/12/04 00:13:37;;;;;;;66.18;32.28;;;;;;;;;;5074263;28;20986;-85
2023/12/04 00:16:04;;;;;;;69.22;33.92;;;;;;;;;;5065355;28;20399;-84
2023/12/04 00:18:30;;;;;;;65.25;34.88;;;;;;;;;;5053696;28;20398;-84
2023/12/04 00:20:56;;;;;;;68.50;33.00;;;;;;;;;;5075118;28;20425;-84
2023/12/04 00:23:22;;;;;;;69.43;34.38;;;;;;;;;;5074011;28;20973;-85
2023/12/04 00:25:48;;;;;;;66.65;32.60;;;;;;;;;;5071653;28;20486;-84
2023/12/04 00:28:14;;;;;;;68.90;31.63;;;;;;;;;;5058619;28;20753;-83
2023/12/04 00:30:40;;;;;;;65.47;31.75;;;;;;;;;;5097354;27;20396;-83
2023/12/04 00:33:06;;;;;;;68.78;31.80;;;;;;;;;;5088015;28;20423;-83
2023/12/04 00:35:32;;;;;;;62.83;32.85;;;;;;;;;;5090668;28;20909;-83
2023/12/04 00:37:58;;;;;;;65.20;32.15;;;;;;;;;;5077684;28;20421;-83
2023/12/04 00:40:24;;;;;;;62.63;31.25;;;;;;;;;;5057230;28;20409;-84
2023/12/04 00:42:51;;;;;;;60.45;33.55;;;;;;;;;;5072183;28;20486;-84
2023/12/04 00:45:17;;;;;;;69.63;32.40;;;;;;;;;;5087055;28;20490;-84
2023/12/04 00:47:43;;;;;;;65.03;33.55;;;;;;;;;;5055061;28;20402;-83
2023/12/04 00:50:09;;;;;;;64.40;34.38;;;;;;;;;;5070661;28;20418;-84
2023/12/04 00:52:35;;;;;;;64.32;34.50;;;;;;;;;;5077113;28;20767;-84
2023/12/04 00:55:01;;;;;;;65.97;31.70;;;;;;;;;;5067404;28;20424;-83
2023/12/04 00:57:27;;;;;;;62.35;31.75;;;;;;;;;;5095704;28;20434;-83
2023/12/04 00:59:53;;;;;;;62.08;30.95;;;;;;;;;;5064964;28;20810;-84
2023/12/04 01:02:19;;;;;;;60.90;33.78;;;;;;;;;;5085014;28;20448;-77
2023/12/04 01:04:45;;;;;;;61.20;30.45;;;;;;;;;;5052682;28;20407;-77
2023/12/04 01:07:11;;;;;;;62.75;31.40;;;;;;;;;;5076530;28;20402;-77
2023/12/04 01:09:38;;;;;;;65.65;32.55;;;;;;;;;;5056822;28;20411;-77
2023/12/04 01:12:04;;;;;;;60.08;32.53;;;;;;;;;;5068799;28;20431;-77
2023/12/04 01:14:30;;;;;;;61.47;31.43;;;;;;;;;;5071308;28;20517;-77
2023/12/04 01:16:56;;;;;;;58.53;32.55;;;;;;;;;;5090251;28;20805;-77
2023/12/04 01:19:22;;;;;;;61.40;32.60;;;;;;;;;;5080969;28;20407;-77
2023/12/04 01:21:49;;;;;;;60.70;32.17;;;;;;;;;;5078454;28;20482;-77
2023/12/04 01:24:16;;;;;;;60.10;32.63;;;;;;;;;;5069139;28;20430;-77
2023/12/04 01:26:42;;;;;;;61.42;31.60;;;;;;;;;;5065541;28;20395;-77
2023/12/04 01:29:08;;;;;;;61.47;33.85;;;;;;;;;;5069333;28;20444;-77
2023/12/04 01:31:34;;;;;;;63.13;32.90;;;;;;;;;;5077560;28;20436;-77
2023/12/04 01:34:01;;;;;;;56.10;30.15;;;;;;;;;;5090091;28;20402;-77
2023/12/04 01:36:27;;;;;;;58.23;31.80;;;;;;;;;;5081497;28;20485;-77
2023/12/04 01:38:53;;;;;;;59.75;32.05;;;;;;;;;;5071826;28;20536;-77
2023/12/04 01:41:19;;;;;;;63.60;31.30;;;;;;;;;;5055649;28;20415;-77
2023/12/04 01:43:45;;;;;;;62.38;33.15;;;;;;;;;;5086508;28;20875;-77
2023/12/04 01:46:12;;;;;;;58.38;31.77;;;;;;;;;;5068604;28;20423;-78
2023/12/04 01:48:38;;;;;;;61.17;31.33;;;;;;;;;;5052410;28;20475;-78
2023/12/04 01:51:06;;;;;;;58.92;34.70;;;;;;;;;;5069708;28;20418;-78
2023/12/04 01:53:33;;;;;;;59.72;31.20;;;;;;;;;;5086146;28;20428;-78
2023/12/04 01:55:59;;;;;;;62.47;33.00;;;;;;;;;;5069084;28;20403;-77
2023/12/04 01:58:25;;;;;;;58.57;30.60;;;;;;;;;;5071346;28;20974;-77
2023/12/04 02:00:51;;;;;;;56.63;32.45;;;;;;;;;;5069301;28;20414;-77
2023/12/04 02:03:17;;;;;;;54.47;31.73;;;;;;;;;;5091884;28;20923;-77
2023/12/04 02:05:46;;;;;;;58.25;30.77;;;;;;;;;;5083954;28;20398;-77
2023/12/04 02:08:13;;;;;;;57.73;31.27;;;;;;;;;;5069219;28;20416;-78
2023/12/04 02:10:39;;;;;;;55.00;30.55;;;;;;;;;;5054658;28;20427;-78
2023/12/04 02:13:05;;;;;;;55.65;33.22;;;;;;;;;;5069653;28;20481;-78
2023/12/04 02:15:31;;;;;;;56.78;29.63;;;;;;;;;;5077316;28;20401;-78
2023/12/04 02:17:58;;;;;;;54.47;31.23;;;;;;;;;;5078014;28;20461;-78
2023/12/04 02:20:34;;;;;;;56.58;31.98;;;;;;;;;;5050620;28;20911;-78
2023/12/04 02:23:01;;;;;;;58.78;31.58;;;;;;;;;;5052343;28;20416;-78
2023/12/04 02:25:27;;;;;;;58.25;30.73;;;;;;;;;;5057719;28;20408;-78
2023/12/04 02:27:54;;;;;;;57.00;31.38;;;;;;;;;;5118311;27;20398;-78
2023/12/04 02:30:23;;;;;;;57.40;32.00;;;;;;;;;;5086570;28;20411;-78
2023/12/04 02:32:49;;;;;;;54.03;32.22;;;;;;;;;;5089948;28;20418;-78
2023/12/04 02:35:17;;;;;;;58.00;29.27;;;;;;;;;;5076371;28;20402;-79
2023/12/04 02:37:43;;;;;;;53.58;30.27;;;;;;;;;;5080861;28;20491;-78
2023/12/04 02:40:11;;;;;;;54.33;29.92;;;;;;;;;;5062996;28;20410;-78
2023/12/04 02:42:37;;;;;;;52.93;33.23;;;;;;;;;;5069856;28;20406;-78
2023/12/04 02:45:03;;;;;;;60.00;31.90;;;;;;;;;;5056175;28;20910;-79
2023/12/04 02:47:29;;;;;;;50.85;28.30;;;;;;;;;;5038943;28;20486;-78
2023/12/04 02:49:55;;;;;;;54.75;30.02;;;;;;;;;;5056118;28;20420;-78
2023/12/04 02:52:21;;;;;;;50.00;30.52;;;;;;;;;;5063944;28;20430;-78
2023/12/04 02:54:47;;;;;;;53.33;29.23;;;;;;;;;;5099207;28;20481;-79
2023/12/04 02:57:13;;;;;;;55.60;30.00;;;;;;;;;;5057290;28;20435;-78
2023/12/04 02:59:39;;;;;;;55.20;30.08;;;;;;;;;;5086341;28;20411;-78
2023/12/04 03:02:05;;;;;;;51.45;29.42;;;;;;;;;;5072438;28;20415;-79
2023/12/04 03:04:32;;;;;;;50.53;28.48;;;;;;;;;;5058562;28;20405;-79
2023/12/04 03:06:58;;;;;;;48.00;26.98;;;;;;;;;;5063563;28;20487;-79
2023/12/04 03:09:24;;;;;;;46.40;29.13;;;;;;;;;;5073531;28;20750;-80
2023/12/04 03:11:50;;;;;;;47.43;28.20;;;;;;;;;;5085555;28;20469;-79
2023/12/04 03:14:16;;;;;;;66.57;28.75;;;;;;;;;;5087948;28;20411;-80
2023/12/04 03:16:42;;;;;;;48.97;26.52;;;;;;;;;;5054319;28;20432;-79
2023/12/04 03:19:08;;;;;;;49.00;26.15;;;;;;;;;;5072102;28;20411;-79
2023/12/04 03:21:34;;;;;;;44.75;25.23;;;;;;;;;;5072570;28;20402;-80
2023/12/04 03:24:00;;;;;;;46.33;28.87;;;;;;;;;;5039198;28;20403;-80
2023/12/04 03:26:28;;;;;;;46.05;27.65;;;;;;;;;;5056215;28;20422;-80
2023/12/04 03:28:54;;;;;;;47.55;26.38;;;;;;;;;;5098750;28;20482;-80
2023/12/04 03:31:20;;;;;;;46.83;26.10;;;;;;;;;;5075647;28;20898;-80
2023/12/04 03:33:46;;;;;;;43.87;27.83;;;;;;;;;;5072833;28;20431;-80
2023/12/04 03:36:12;;;;;;;46.45;27.50;;;;;;;;;;5055630;28;20406;-80
2023/12/04 03:38:38;;;;;;;45.05;25.02;;;;;;;;;;5070171;28;20427;-80
2023/12/04 03:41:04;;;;;;;45.40;25.40;;;;;;;;;;5055614;28;20404;-80
2023/12/04 03:43:30;;;;;;;46.55;26.08;;;;;;;;;;5063860;28;20408;-81
2023/12/04 03:45:56;;;;;;;46.45;25.27;;;;;;;;;;5072318;28;20396;-80
2023/12/04 03:48:22;;;;;;;50.38;26.63;;;;;;;;;;5070836;28;20795;-81
2023/12/04 03:50:48;;;;;;;48.35;26.10;;;;;;;;;;5054243;28;20407;-81
2023/12/04 03:53:14;;;;;;;45.72;28.13;;;;;;;;;;5073074;28;20423;-82
2023/12/04 03:55:40;;;;;;;44.83;27.00;;;;;;;;;;5053589;28;20412;-81
2023/12/04 03:58:07;;;;;;;45.88;24.70;;;;;;;;;;5077279;28;20389;-82
2023/12/04 04:00:33;;;;;;;46.47;24.73;;;;;;;;;;5055704;28;20452;-81
2023/12/04 04:02:59;;;;;;;47.33;25.50;;;;;;;;;;5070671;28;20399;-82
2023/12/04 04:05:25;;;;;;;46.22;25.20;;;;;;;;;;5057988;28;20859;-81
2023/12/04 04:07:51;;;;;;;42.53;23.65;;;;;;;;;;5058295;28;20449;-82
2023/12/04 04:10:17;;;;;;;42.80;23.97;;;;;;;;;;5070857;28;20420;-82
2023/12/04 04:12:43;;;;;;;43.28;26.17;;;;;;;;;;5104803;28;20414;-81
2023/12/04 04:15:09;;;;;;;51.85;25.42;;;;;;;;;;5078592;28;20460;-81
2023/12/04 04:17:35;;;;;;;41.67;23.33;;;;;;;;;;5065961;28;20912;-81
2023/12/04 04:20:02;;;;;;;42.85;23.90;;;;;;;;;;5071711;28;20510;-81
2023/12/04 04:22:28;;;;;;;39.20;25.02;;;;;;;;;;5071617;28;20803;-82
2023/12/04 04:24:54;;;;;;;40.22;23.45;;;;;;;;;;5055285;28;20468;-82
2023/12/04 04:27:20;;;;;;;38.50;23.65;;;;;;;;;;5055188;28;20427;-82
2023/12/04 04:29:46;;;;;;;38.00;23.13;;;;;;;;;;5038482;28;20499;-83
2023/12/04 04:32:12;;;;;;;40.17;22.90;;;;;;;;;;5054565;28;20424;-83
2023/12/04 04:34:38;;;;;;;40.95;24.00;;;;;;;;;;5057925;28;20438;-83
2023/12/04 04:37:04;;;;;;;39.45;23.02;;;;;;;;;;5073646;28;20402;-83
2023/12/04 04:39:30;;;;;;;39.80;22.48;;;;;;;;;;5056526;28;20726;-83
2023/12/04 04:41:56;;;;;;;38.50;22.33;;;;;;;;;;5071114;28;20396;-83
2023/12/04 04:44:22;;;;;;;43.28;22.25;;;;;;;;;;5059269;28;20477;-83
2023/12/04 04:46:49;;;;;;;37.50;23.25;;;;;;;;;;5070946;28;20434;-82
2023/12/04 04:49:15;;;;;;;39.45;21.60;;;;;;;;;;5054525;28;20460;-82
2023/12/04 04:51:41;;;;;;;39.42;22.35;;;;;;;;;;5037135;28;20788;-80
2023/12/04 04:54:07;;;;;;;38.25;24.02;;;;;;;;;;5073383;28;20411;-80
2023/12/04 04:56:33;;;;;;;39.65;24.83;;;;;;;;;;5096568;28;20442;-81
2023/12/04 04:58:59;;;;;;;38.85;23.52;;;;;;;;;;5080032;28;20495;-81
2023/12/04 05:01:25;;;;;;;38.88;24.48;;;;;;;;;;5051531;28;20739;-83
2023/12/04 05:03:51;;;;;;;39.95;24.42;;;;;;;;;;5033876;28;20488;-81
2023/12/04 05:06:17;;;;;;;39.83;22.45;;;;;;;;;;5065523;28;20543;-81
2023/12/04 05:08:43;;;;;;;40.58;22.05;;;;;;;;;;5090525;28;20968;-81
2023/12/04 05:11:09;;;;;;;40.33;23.43;;;;;;;;;;5070389;28;20500;-81
2023/12/04 05:13:35;;;;;;;45.70;23.17;;;;;;;;;;5069200;28;20513;-81
2023/12/04 05:16:01;;;;;;;41.03;23.23;;;;;;;;;;5080082;28;20401;-80
2023/12/04 05:18:27;;;;;;;38.35;21.60;;;;;;;;;;5072533;28;20395;-80
2023/12/04 05:20:54;;;;;;;38.67;21.30;;;;;;;;;;5065158;28;20490;-80
2023/12/04 05:23:20;;;;;;;39.20;22.08;;;;;;;;;;5068527;28;20399;-80
2023/12/04 05:25:46;;;;;;;38.25;22.58;;;;;;;;;;5053523;28;20400;-80
2023/12/04 05:28:12;;;;;;;37.88;21.40;;;;;;;;;;5052321;28;20434;-81
2023/12/04 05:30:38;;;;;;;49.03;22.77;;;;;;;;;;5103345;28;20404;-81
2023/12/04 05:33:04;;;;;;;58.92;23.83;;;;;;;;;;5087306;28;20425;-81
2023/12/04 05:35:33;;;;;;;63.40;23.05;;;;;;;;;;5038876;28;20517;-81
2023/12/04 05:38:00;;;;;;;78.82;23.33;;;;;;;;;;5070981;28;20407;-80
2023/12/04 05:40:26;;;;;;;67.03;23.23;;;;;;;;;;5053680;28;20399;-80
2023/12/04 05:42:52;;;;;;;89.20;24.30;;;;;;;;;;5082276;28;20419;-80
2023/12/04 05:45:18;;;;;;;48.05;22.05;;;;;;;;;;5047392;28;20419;-80
2023/12/04 05:47:44;;;;;;;78.28;23.35;;;;;;;;;;5054237;28;20404;-80
2023/12/04 05:50:10;;;;;;;34.97;19.50;;;;;;;;;;5053469;28;20926;-80
2023/12/04 05:52:36;;;;;;;34.05;19.02;;;;;;;;;;5069379;28;20423;-78
2023/12/04 05:55:02;;;;;;;50.03;20.35;;;;;;;;;;5054258;28;20417;-79
2023/12/04 05:57:29;;;;;;;71.18;21.98;;;;;;;;;;5084921;28;20426;-80
2023/12/04 05:59:55;;;;;;;34.65;19.65;;;;;;;;;;5037083;28;20426;-79
2023/12/04 06:02:21;;;;;;;52.97;21.17;;;;;;;;;;5072425;28;20413;-79
2023/12/04 06:04:47;;;;;;;72.05;23.20;;;;;;;;;;5056707;28;20407;-80
2023/12/04 06:07:13;;;;;;;45.22;20.13;;;;;;;;;;5055131;28;20411;-79
2023/12/04 06:09:39;;;;;;;76.20;21.55;;;;;;;;;;5097398;28;20403;-78
2023/12/04 06:12:08;;;;;;;107.97;23.13;;;;;;;;;;5073847;28;20787;-79
2023/12/04 06:14:34;;;;;;;114.93;25.07;;;;;;;;;;5091365;28;20941;-79
2023/12/04 06:17:01;;;;;;;83.97;23.63;;;;;;;;;;5100135;27;20405;-79
2023/12/04 06:19:29;;;;;;;41.85;19.83;;;;;;;;;;5060237;28;20909;-79
2023/12/04 06:21:55;;;;;;;32.95;18.77;;;;;;;;;;5054091;28;20477;-79
2023/12/04 06:24:21;;;;;;;31.95;18.42;;;;;;;;;;5085513;28;20403;-79
2023/12/04 06:26:50;;;;;;;33.17;20.37;;;;;;;;;;5073870;28;20448;-79
2023/12/04 06:29:16;;;;;;;32.17;18.50;;;;;;;;;;5071494;28;20399;-79
2023/12/04 06:31:42;;;;;;;30.02;18.75;;;;;;;;;;5054085;28;20441;-80
2023/12/04 06:34:09;;;;;;;28.55;18.33;;;;;;;;;;5053603;28;20399;-78
2023/12/04 06:36:39;;;;;;;31.17;18.35;;;;;;;;;;5040410;28;20743;-77
2023/12/04 06:39:09;;;;;;;27.37;16.90;;;;;;;;;;5079878;28;20811;-78
2023/12/04 06:41:36;;;;;;;41.03;19.48;;;;;;;;;;5064735;28;20402;-78
2023/12/04 06:44:02;;;;;;;28.92;18.05;;;;;;;;;;5064609;28;20559;-77
2023/12/04 06:46:29;;;;;;;26.67;19.05;;;;;;;;;;5044211;28;20414;-77
2023/12/04 06:48:57;;;;;;;27.55;16.52;;;;;;;;;;5076453;28;20422;-77
2023/12/04 06:51:23;;;;;;;29.73;17.90;;;;;;;;;;5089231;28;20461;-77
2023/12/04 06:53:49;;;;;;;29.83;18.60;;;;;;;;;;5081235;28;20424;-77
2023/12/04 06:56:15;;;;;;;26.38;16.67;;;;;;;;;;5092771;28;20406;-78
2023/12/04 06:58:41;;;;;;;27.70;16.83;;;;;;;;;;5053588;28;20912;-77
2023/12/04 07:01:07;;;;;;;25.92;16.25;;;;;;;;;;5065285;28;20405;-78
2023/12/04 07:03:33;;;;;;;53.47;19.88;;;;;;;;;;5086512;28;20416;-77
2023/12/04 07:06:00;;;;;;;25.48;16.58;;;;;;;;;;5055850;28;20404;-77
2023/12/04 07:08:26;;;;;;;25.77;17.47;;;;;;;;;;5055964;28;20406;-77
2023/12/04 07:10:52;;;;;;;23.92;15.93;;;;;;;;;;5056829;28;20407;-78
2023/12/04 07:13:19;;;;;;;41.67;18.08;;;;;;;;;;5079596;28;20424;-77
2023/12/04 07:15:45;;;;;;;26.30;16.05;;;;;;;;;;5071141;28;20939;-77
2023/12/04 07:18:11;;;;;;;27.63;16.48;;;;;;;;;;5071126;28;20433;-77
2023/12/04 07:20:37;;;;;;;26.33;16.80;;;;;;;;;;5089898;28;20423;-77
2023/12/04 07:23:03;;;;;;;35.22;17.15;;;;;;;;;;5087873;28;20442;-78
2023/12/04 07:25:29;;;;;;;25.90;15.95;;;;;;;;;;5057232;28;20395;-78
2023/12/04 07:27:57;;;;;;;24.02;16.67;;;;;;;;;;5080351;28;20404;-77
2023/12/04 07:30:24;;;;;;;25.40;17.05;;;;;;;;;;5105456;27;20930;-77
2023/12/04 07:32:50;;;;;;;23.73;16.13;;;;;;;;;;5071636;28;20420;-76
2023/12/04 07:35:21;;;;;;;24.17;16.05;;;;;;;;;;5071124;28;20395;-77
2023/12/04 07:37:47;;;;;;;23.35;15.18;;;;;;;;;;5070350;28;20422;-77
2023/12/04 07:40:13;;;;;;;23.40;14.82;;;;;;;;;;5056330;28;20904;-77
2023/12/04 07:42:39;;;;;;;23.42;15.65;;;;;;;;;;5071319;28;20406;-77
2023/12/04 07:45:05;;;;;;;22.63;14.23;;;;;;;;;;5055520;28;20875;-77
2023/12/04 07:47:31;;;;;;;22.73;14.38;;;;;;;;;;5075022;28;20399;-77
2023/12/04 07:49:57;;;;;;;23.85;14.27;;;;;;;;;;5087943;28;20498;-77
2023/12/04 07:52:23;;;;;;;21.52;15.07;;;;;;;;;;5066409;28;20418;-78
2023/12/04 07:54:49;;;;;;;25.40;14.67;;;;;;;;;;5052459;28;20979;-77
2023/12/04 07:57:16;;;;;;;21.73;14.02;;;;;;;;;;5070509;28;20458;-77
2023/12/04 07:59:42;;;;;;;21.97;13.73;;;;;;;;;;5102477;28;20446;-77
2023/12/04 08:02:09;;;;;;;24.67;14.30;;;;;;;;;;5068984;28;20515;-75
2023/12/04 08:04:35;;;;;;;22.83;15.02;;;;;;;;;;5070015;28;20400;-75
2023/12/04 08:07:01;;;;;;;24.43;14.20;;;;;;;;;;5071818;28;20823;-76
2023/12/04 08:09:27;;;;;;;22.90;14.20;;;;;;;;;;5077508;28;20447;-76
2023/12/04 08:11:53;;;;;;;19.67;12.93;;;;;;;;;;5058112;28;20419;-76
2023/12/04 08:14:19;;;;;;;22.80;14.85;;;;;;;;;;5054500;28;20396;-76
2023/12/04 08:16:45;;;;;;;21.70;13.63;;;;;;;;;;5090175;28;20502;-76
2023/12/04 08:19:11;;;;;;;19.65;13.18;;;;;;;;;;5103067;28;20396;-76
2023/12/04 08:21:38;;;;;;;21.13;12.95;;;;;;;;;;5053994;28;20422;-76
2023/12/04 08:24:04;;;;;;;19.25;13.35;;;;;;;;;;5036570;28;20412;-77
2023/12/04 08:26:30;;;;;;;18.50;12.93;;;;;;;;;;5070309;28;20399;-77
2023/12/04 08:28:56;;;;;;;18.97;12.37;;;;;;;;;;5053286;28;20811;-76
2023/12/04 08:31:22;;;;;;;18.50;11.85;;;;;;;;;;5088049;28;20829;-77
2023/12/04 08:33:48;;;;;;;18.20;11.83;;;;;;;;;;5098283;28;20466;-77
2023/12/04 08:36:15;;;;;;;17.17;11.40;;;;;;;;;;5053956;28;20470;-76
2023/12/04 08:38:41;;;;;;;17.67;11.98;;;;;;;;;;5069657;28;20407;-77
2023/12/04 08:41:07;;;;;;;18.48;12.35;;;;;;;;;;5069949;28;20910;-77
2023/12/04 08:43:34;;;;;;;17.10;11.82;;;;;;;;;;5086347;28;20399;-77
2023/12/04 08:46:00;;;;;;;19.00;11.77;;;;;;;;;;5073615;28;20407;-77
2023/12/04 08:48:26;;;;;;;16.75;11.60;;;;;;;;;;5070656;28;20404;-77
2023/12/04 08:50:52;;;;;;;17.15;11.32;;;;;;;;;;5052888;28;20424;-77
2023/12/04 08:53:18;;;;;;;19.08;11.82;;;;;;;;;;5081573;28;20424;-76
2023/12/04 08:55:46;;;;;;;17.50;11.38;;;;;;;;;;5053897;28;20423;-76
2023/12/04 08:58:13;;;;;;;16.38;11.65;;;;;;;;;;5097213;28;20432;-75
2023/12/04 09:00:42;;;;;;;17.80;11.50;;;;;;;;;;5080079;28;20404;-75
2023/12/04 09:03:09;;;;;;;16.00;10.60;;;;;;;;;;5062593;28;20429;-75
2023/12/04 09:05:35;;;;;;;16.77;11.40;;;;;;;;;;5072727;28;20486;-76
2023/12/04 09:08:01;;;;;;;16.33;10.68;;;;;;;;;;5069161;28;20406;-76
2023/12/04 09:10:27;;;;;;;16.38;10.45;;;;;;;;;;5069897;28;20458;-76
2023/12/04 09:12:53;;;;;;;17.75;11.40;;;;;;;;;;5080474;28;20584;-76
2023/12/04 09:15:19;;;;;;;18.25;11.52;;;;;;;;;;5087210;28;20397;-76
2023/12/04 09:17:45;;;;;;;16.10;11.32;;;;;;;;;;5061377;28;20404;-76
2023/12/04 09:20:11;;;;;;;17.43;11.10;;;;;;;;;;5069586;28;20399;-76
2023/12/04 09:22:38;;;;;;;17.75;11.80;;;;;;;;;;5103536;28;20491;-76
2023/12/04 09:25:11;;;;;;;16.90;11.05;;;;;;;;;;5070988;28;20941;-85
2023/12/04 09:27:37;;;;;;;15.73;10.50;;;;;;;;;;5037827;28;20403;-85
2023/12/04 09:30:04;;;;;;;16.05;11.10;;;;;;;;;;5070244;28;20898;-85
2023/12/04 09:32:30;;;;;;;16.77;11.07;;;;;;;;;;5086855;28;20434;-84
2023/12/04 09:34:56;;;;;;;15.38;10.20;;;;;;;;;;5063648;28;20396;-84
2023/12/04 09:37:22;;;;;;;15.93;10.18;;;;;;;;;;5078999;28;20745;-84
2023/12/04 09:39:49;;;;;;;20.25;11.80;;;;;;;;;;5078251;28;20472;-84
2023/12/04 09:42:16;;;;;;;16.35;11.05;;;;;;;;;;5079410;28;20960;-84
2023/12/04 09:44:43;;;;;;;17.38;10.25;;;;;;;;;;5080442;28;21049;-84
2023/12/04 09:47:10;;;;;;;16.35;11.25;;;;;;;;;;5083381;28;20445;-84
2023/12/04 09:49:36;;;;;;;15.90;10.25;;;;;;;;;;5116090;27;20411;-83
2023/12/04 09:52:02;;;;;;;15.50;10.00;;;;;;;;;;5073026;28;20407;-83
2023/12/04 09:54:29;;;;;;;15.63;10.40;;;;;;;;;;5078466;28;20406;-83
2023/12/04 09:56:56;;;;;;;15.57;10.07;;;;;;;;;;5067542;28;20915;-84
2023/12/04 09:59:27;;;;;;;16.52;9.52;;;;;;;;;;5088106;28;20440;-83
2023/12/04 10:01:53;;;;;;;15.20;9.73;;;;;;;;;;5074751;28;20933;-84
2023/12/04 10:04:21;;;;;;;13.93;10.20;;;;;;;;;;5075503;28;20418;-83
2023/12/04 10:06:51;;;;;;;15.27;10.53;;;;;;;;;;5041531;28;20398;-83
2023/12/04 10:09:18;;;;;;;16.60;10.23;;;;;;;;;;5055500;28;20423;-84
2023/12/04 10:11:45;;;;;;;14.73;9.38;;;;;;;;;;5072471;28;20822;-84
2023/12/04 10:14:18;;;;;;;14.65;9.65;;;;;;;;;;5073412;28;20430;-83
2023/12/04 10:16:45;;;;;;;14.20;9.27;;;;;;;;;;5073667;28;20392;-84
2023/12/04 10:19:16;;;;;;;14.20;9.05;;;;;;;;;;5080877;28;20395;-83
2023/12/04 10:21:42;;;;;;;14.63;9.80;;;;;;;;;;5072720;28;20407;-83
2023/12/04 10:24:08;;;;;;;13.00;8.90;;;;;;;;;;5066192;28;20425;-83
2023/12/04 10:26:34;;;;;;;14.43;10.30;;;;;;;;;;5072559;28;20485;-83
2023/12/04 10:29:02;;;;;;;15.07;9.68;;;;;;;;;;5072476;28;20404;-82
2023/12/04 10:31:33;;;;;;;13.60;9.32;;;;;;;;;;5055741;28;20507;-83
2023/12/04 10:33:59;;;;;;;12.10;9.13;;;;;;;;;;5072824;28;20430;-82
2023/12/04 10:36:25;;;;;;;13.68;9.48;;;;;;;;;;5070538;28;20431;-82
2023/12/04 10:39:00;;;;;;;13.38;8.60;;;;;;;;;;5055974;28;20404;-82
2023/12/04 10:41:27;;;;;;;14.73;9.57;;;;;;;;;;5078030;28;20395;-82
2023/12/04 10:43:53;;;;;;;13.40;8.48;;;;;;;;;;5080179;28;20922;-82
2023/12/04 10:46:20;;;;;;;14.13;8.85;;;;;;;;;;5042387;28;20403;-83
2023/12/04 10:48:47;;;;;;;12.75;9.23;;;;;;;;;;5062572;28;20404;-85
2023/12/04 10:51:14;;;;;;;12.35;9.10;;;;;;;;;;5070804;28;20465;-85
2023/12/04 10:53:42;;;;;;;12.57;8.88;;;;;;;;;;5053785;28;20420;-85
2023/12/04 10:56:17;;;;;;;11.50;8.70;;;;;;;;;;5074707;28;20418;-84
2023/12/04 10:58:44;;;;;;;16.83;9.43;;;;;;;;;;5074562;28;20802;-85
2023/12/04 11:01:12;;;;;;;14.48;8.75;;;;;;;;;;5056399;28;20736;-83
2023/12/04 11:03:44;;;;;;;14.18;8.80;;;;;;;;;;5101999;28;20400;-86
2023/12/04 11:06:15;;;;;;;13.43;9.40;;;;;;;;;;5056987;28;20490;-86
2023/12/04 11:08:42;;;;;;;15.27;9.07;;;;;;;;;;5072186;28;20403;-87
2023/12/04 11:11:16;;;;;;;12.80;8.75;;;;;;;;;;5085752;28;20915;-77
2023/12/04 11:13:43;;;;;;;13.40;9.38;;;;;;;;;;5051306;28;20423;-75
2023/12/04 11:16:26;;;;;;;12.50;8.70;;;;;;;;;;5070289;28;20458;-75
2023/12/04 11:18:57;;;;;;;12.35;8.70;;;;;;;;;;5049823;28;20399;-75
2023/12/04 11:21:24;;;;;;;12.90;8.55;;;;;;;;;;5070342;28;20412;-78
2023/12/04 11:23:50;;;;;;;13.18;8.60;;;;;;;;;;5069279;28;20407;-77
2023/12/04 11:26:17;;;;;;;11.18;8.98;;;;;;;;;;5085499;28;20492;-76
2023/12/04 11:28:44;;;;;;;13.00;8.48;;;;;;;;;;5057337;28;20477;-76
2023/12/04 11:31:10;;;;;;;11.83;8.60;;;;;;;;;;5062212;28;20930;-77
2023/12/04 11:33:36;;;;;;;12.18;8.63;;;;;;;;;;5088442;28;20420;-77
2023/12/04 11:36:06;;;;;;;11.00;7.90;;;;;;;;;;5105146;27;20475;-79
2023/12/04 11:38:32;;;;;;;11.35;8.13;;;;;;;;;;5054156;28;20411;-79
2023/12/04 11:40:59;;;;;;;11.98;8.23;;;;;;;;;;5035256;28;20393;-78
2023/12/04 11:43:26;;;;;;;12.38;8.38;;;;;;;;;;5083078;28;20448;-78
2023/12/04 11:45:52;;;;;;;11.60;8.37;;;;;;;;;;5088249;28;20461;-77
2023/12/04 11:48:23;;;;;;;11.02;7.60;;;;;;;;;;5076290;28;20430;-76
2023/12/04 11:50:50;;;;;;;12.32;8.25;;;;;;;;;;5088915;28;20450;-78
2023/12/04 11:53:17;;;;;;;12.23;7.65;;;;;;;;;;5073925;28;20420;-77
2023/12/04 11:55:43;;;;;;;11.55;7.80;;;;;;;;;;5071672;28;20526;-77
2023/12/04 11:58:10;;;;;;;13.18;8.40;;;;;;;;;;5073952;28;20779;-78
2023/12/04 12:00:37;;;;;;;12.35;8.73;;;;;;;;;;5112485;27;20450;-78
2023/12/04 12:03:09;;;;;;;11.63;8.50;;;;;;;;;;5071009;28;20403;-75
2023/12/04 12:05:35;;;;;;;13.10;8.43;;;;;;;;;;5092786;28;20427;-76
2023/12/04 12:08:02;;;;;;;10.95;7.78;;;;;;;;;;5087283;28;20422;-77
2023/12/04 12:10:29;;;;;;;10.70;7.47;;;;;;;;;;5070997;28;20866;-76
2023/12/04 12:12:56;;;;;;;11.75;7.57;;;;;;;;;;5055067;28;20416;-78
2023/12/04 12:15:22;;;;;;;10.98;7.78;;;;;;;;;;5104006;27;20903;-77
2023/12/04 12:17:50;;;;;;;11.27;7.32;;;;;;;;;;5087999;28;20718;-78
2023/12/04 12:20:16;;;;;;;10.98;7.57;;;;;;;;;;5085829;28;20862;-78
2023/12/04 12:22:46;;;;;;;9.97;7.27;;;;;;;;;;5071288;28;20436;-78
2023/12/04 12:25:12;;;;;;;10.63;7.53;;;;;;;;;;5042348;28;20408;-78
2023/12/04 12:27:39;;;;;;;9.95;7.28;;;;;;;;;;5071044;28;20771;-79
2023/12/04 12:30:06;;;;;;;11.63;7.82;;;;;;;;;;5071393;28;20404;-77
2023/12/04 12:32:32;;;;;;;10.57;7.32;;;;;;;;;;5054457;28;20442;-79
2023/12/04 12:34:58;;;;;;;10.43;7.55;;;;;;;;;;5071673;28;20453;-78
2023/12/04 12:37:24;;;;;;;10.95;7.65;;;;;;;;;;5074363;28;20966;-77
2023/12/04 12:39:51;;;;;;;10.88;7.30;;;;;;;;;;5071642;28;20392;-76
2023/12/04 12:42:27;;;;;;;11.45;7.47;;;;;;;;;;5071553;28;20395;-77
2023/12/04 12:44:55;;;;;;;10.90;7.35;;;;;;;;;;5070775;28;20404;-79
2023/12/04 12:47:21;;;;;;;9.63;7.30;;;;;;;;;;5049450;28;20905;-76
2023/12/04 12:49:47;;;;;;;11.13;7.85;;;;;;;;;;5054572;28;20412;-76
2023/12/04 12:52:14;;;;;;;10.18;7.25;;;;;;;;;;5046445;28;20417;-75
2023/12/04 12:54:41;;;;;;;11.10;7.70;;;;;;;;;;5061780;28;20406;-74
2023/12/04 12:57:07;;;;;;;12.80;8.13;;;;;;;;;;5079850;28;20404;-75
2023/12/04 12:59:34;;;;;;;11.85;8.40;;;;;;;;;;5072831;28;20454;-78
2023/12/04 13:02:01;;;;;;;11.93;8.18;;;;;;;;;;5055845;28;20403;-77
2023/12/04 13:04:34;;;;;;;13.80;8.38;;;;;;;;;;5070372;28;20400;-78
2023/12/04 13:07:00;;;;;;;13.25;8.65;;;;;;;;;;5074615;28;20402;-77
2023/12/04 13:09:26;;;;;;;10.02;7.13;;;;;;;;;;5054900;28;20455;-77
2023/12/04 13:11:52;;;;;;;11.05;7.82;;;;;;;;;;5085171;28;20804;-77
2023/12/04 13:14:18;;;;;;;10.35;6.95;;;;;;;;;;5105914;27;20429;-77
2023/12/04 13:16:44;;;;;;;11.43;7.27;;;;;;;;;;5070597;28;20481;-76
2023/12/04 13:19:10;;;;;;;11.57;7.47;;;;;;;;;;5036219;28;21069;-76
2023/12/04 13:21:36;;;;;;;11.20;7.53;;;;;;;;;;5070742;28;20462;-77
2023/12/04 13:24:06;;;;;;;10.68;7.47;;;;;;;;;;5069969;28;20406;-77
2023/12/04 13:26:33;;;;;;;10.48;7.28;;;;;;;;;;5069488;28;20561;-79
2023/12/04 13:28:59;;;;;;;10.27;7.03;;;;;;;;;;5054352;28;20411;-76
2023/12/04 13:31:27;;;;;;;9.23;6.30;;;;;;;;;;5052784;28;20406;-77
2023/12/04 13:33:53;;;;;;;9.82;6.45;;;;;;;;;;5070011;28;20507;-77
2023/12/04 13:36:20;;;;;;;9.23;6.45;;;;;;;;;;5077782;28;20402;-77
2023/12/04 13:38:46;;;;;;;10.40;6.88;;;;;;;;;;5070020;28;20911;-77
2023/12/04 13:43:59;;;;;;;10.82;7.00;;;;;;;;;;5110663;28;20887;-77
2023/12/04 13:46:26;;;;;;;10.37;7.03;;;;;;;;;;5036069;28;20488;-78
2023/12/04 13:48:53;;;;;;;11.32;7.03;;;;;;;;;;5048319;28;20419;-77
2023/12/04 13:51:19;;;;;;;10.67;7.07;;;;;;;;;;5087794;28;20411;-77
2023/12/04 13:53:49;;;;;;;10.63;6.72;;;;;;;;;;5099162;28;20419;-77
2023/12/04 13:58:55;;;;;;;11.38;7.32;;;;;;;;;;5098818;28;20439;-77
2023/12/04 14:01:23;;;;;;;11.65;7.70;;;;;;;;;;5103189;28;20943;-77
2023/12/04 14:03:49;;;;;;;12.60;7.63;;;;;;;;;;5071613;28;20759;-77
2023/12/04 14:06:18;;;;;;;11.63;7.40;;;;;;;;;;5082645;28;20922;-77
2023/12/04 14:08:45;;;;;;;11.60;7.15;;;;;;;;;;5081948;28;20494;-77
2023/12/04 14:11:12;;;;;;;9.70;7.30;;;;;;;;;;5068071;28;20400;-77
2023/12/04 14:13:41;;;;;;;11.57;7.60;;;;;;;;;;5050949;28;20493;-77
2023/12/04 14:16:07;;;;;;;13.93;7.53;;;;;;;;;;5067794;28;20458;-77
2023/12/04 14:18:34;;;;;;;11.88;7.82;;;;;;;;;;5067420;28;20431;-77
2023/12/04 14:21:00;;;;;;;12.15;7.32;;;;;;;;;;5096710;28;20423;-76
2023/12/04 14:23:26;;;;;;;11.15;8.00;;;;;;;;;;5069697;28;20495;-77